Altonah, Utah
Current Conditions -  °F | °C
As of 8:53 AM on Thursday 29 Jan 2015 (Local Time) from KVEL Reporting Station
Clear Clear  
Wind Chill: 36°   Ceiling: Unl
Heat Index: 36°   Visibility: 10mi
Dew Point: 28°   Wind: 3mph
Humidity: 73%   Direction: 290°WNW
Pressure: 30.4"   Gusts: NA
Location:  40.4°N, 110.29°W
Report Text: KVEL 291553Z AUTO 29003KT 10SM CLR 02/M02 A3040 RMK AO2 SLP301 T00221022
Loading
Personal Weather Stations






























Interactive Weather Map New forecast layout! Learn more

10-Day Weather Forecast

Advertisements
Track Severe Weather on mobile